Time;durP1;ratioP1;P1;durP2;ratioP2;P2;SDS_P1;SDS_P2;PMS_P1;PMS_P2;Temp;Humidity;BMP_temperature;BMP_pressure;BME280_temperature;BME280_humidity;BME280_pressure;Samples;Min_cycle;Max_cycle;Signal;HPM_P1;HPM_P2
2024/02/01 00:01:17;;;;;;;12.98;8.38;;;;;;;11.43;59.01;102384.19;4965196;28;122714;-79
2024/02/01 00:03:44;;;;;;;13.65;8.48;;;;;;;11.41;59.08;102385.97;4965983;28;113178;-79
2024/02/01 00:06:12;;;;;;;15.85;8.65;;;;;;;11.41;59.11;102391.28;4970581;28;114091;-79
2024/02/01 00:08:39;;;;;;;14.25;7.85;;;;;;;11.39;59.33;102381.63;4967806;28;125784;-79
2024/02/01 00:11:06;;;;;;;16.27;8.27;;;;;;;11.37;59.40;102379.00;4961339;28;123374;-79
2024/02/01 00:13:33;;;;;;;15.43;8.55;;;;;;;11.34;59.69;102379.09;4959449;28;116669;-79
2024/02/01 00:16:01;;;;;;;13.85;8.40;;;;;;;11.32;59.76;102380.91;4969934;28;117172;-79
2024/02/01 00:18:28;;;;;;;13.80;8.23;;;;;;;11.32;59.87;102386.22;4968262;28;125138;-79
2024/02/01 00:20:55;;;;;;;13.10;7.50;;;;;;;11.30;59.95;102382.69;4968224;28;124546;-79
2024/02/01 00:23:23;;;;;;;16.02;8.00;;;;;;;11.29;60.03;102383.63;4964687;28;115000;-79
2024/02/01 00:25:50;;;;;;;13.82;8.13;;;;;;;11.27;60.19;102380.13;4969715;28;111961;-79
2024/02/01 00:28:17;;;;;;;17.20;7.55;;;;;;;11.25;60.35;102374.88;4970477;28;124460;-79
2024/02/01 00:30:44;;;;;;;15.52;8.02;;;;;;;11.25;60.49;102379.31;4967215;28;123633;-79
2024/02/01 00:33:12;;;;;;;14.50;8.10;;;;;;;11.24;60.52;102388.16;4964409;28;115689;-79
2024/02/01 00:35:40;;;;;;;12.88;7.30;;;;;;;11.22;60.75;102382.00;4970949;28;113209;-79
2024/02/01 00:38:07;;;;;;;17.50;7.97;;;;;;;11.23;60.65;102397.03;4953262;28;124947;-79
2024/02/01 00:40:34;;;;;;;15.35;7.95;;;;;;;11.24;60.76;102396.09;4960591;28;123977;-79
2024/02/01 00:43:02;;;;;;;12.75;7.90;;;;;;;11.24;61.02;102396.09;4964557;28;115162;-79
2024/02/01 00:45:29;;;;;;;15.55;8.30;;;;;;;11.26;60.89;102396.94;4968888;28;113710;-79
2024/02/01 00:47:56;;;;;;;14.32;7.85;;;;;;;11.24;60.91;102382.84;4962709;28;123826;-79
2024/02/01 00:50:24;;;;;;;16.63;7.85;;;;;;;11.24;61.17;102394.31;4969741;28;124631;-80
2024/02/01 00:52:51;;;;;;;13.23;8.00;;;;;;;11.23;61.20;102391.72;4974964;28;115364;-80
2024/02/01 00:55:18;;;;;;;12.85;8.25;;;;;;;11.22;61.30;102384.66;4971383;28;113857;-79
2024/02/01 00:57:45;;;;;;;14.48;8.23;;;;;;;11.21;61.30;102377.63;4965584;28;125062;-80
2024/02/01 01:00:13;;;;;;;14.25;7.82;;;;;;;11.22;61.35;102369.63;4946822;28;123575;-80
2024/02/01 01:02:40;;;;;;;15.25;8.40;;;;;;;11.23;61.51;102370.50;4976586;28;113405;-80
2024/02/01 01:05:08;;;;;;;15.75;8.48;;;;;;;11.24;61.66;102382.84;4971053;28;115412;-80
2024/02/01 01:07:36;;;;;;;12.02;8.48;;;;;;;11.24;61.63;102377.53;4966583;28;124857;-80
2024/02/01 01:10:03;;;;;;;13.38;8.43;;;;;;;11.25;61.89;102374.88;4970893;28;125503;-80
2024/02/01 01:12:30;;;;;;;14.70;8.30;;;;;;;11.25;61.69;102368.69;4978226;28;113877;-80
2024/02/01 01:14:57;;;;;;;14.40;8.48;;;;;;;11.26;62.01;102370.41;4969796;28;112960;-80
2024/02/01 01:17:25;;;;;;;12.75;7.82;;;;;;;11.26;61.96;102365.13;4967272;28;124082;-80
2024/02/01 01:19:54;;;;;;;13.80;8.50;;;;;;;11.27;62.13;102361.56;4969451;28;125712;-80
2024/02/01 01:22:21;;;;;;;13.55;7.80;;;;;;;11.28;61.85;102368.59;4963697;28;113346;-80
2024/02/01 01:24:51;;;;;;;13.40;8.40;;;;;;;11.30;61.97;102366.78;4970692;28;115103;-81
2024/02/01 01:27:19;;;;;;;13.95;8.70;;;;;;;11.31;62.20;102363.25;4953114;28;123023;-80
2024/02/01 01:29:46;;;;;;;14.18;8.32;;;;;;;11.33;62.31;102372.03;4970801;28;123966;-80
2024/02/01 01:32:16;;;;;;;12.77;8.23;;;;;;;11.34;62.60;102355.22;4987868;28;115449;-80
2024/02/01 01:34:44;;;;;;;12.85;8.10;;;;;;;11.34;62.32;102351.66;4974139;28;114903;-80
2024/02/01 01:37:11;;;;;;;12.65;8.50;;;;;;;11.37;62.51;102357.78;4958059;28;124381;-80
2024/02/01 01:39:38;;;;;;;14.63;8.68;;;;;;;11.36;62.52;102350.75;4965207;28;123990;-80
2024/02/01 01:42:06;;;;;;;12.80;8.63;;;;;;;11.37;62.67;102356.91;4961913;28;115377;-80
2024/02/01 01:44:33;;;;;;;15.20;8.57;;;;;;;11.37;62.81;102360.44;4967671;28;113146;-80
2024/02/01 01:47:00;;;;;;;14.68;9.40;;;;;;;11.40;62.87;102368.31;4967777;28;123114;-80
2024/02/01 01:49:28;;;;;;;14.93;9.40;;;;;;;11.42;62.77;102361.19;4956022;28;123960;-80
2024/02/01 01:51:57;;;;;;;13.75;9.27;;;;;;;11.43;62.98;102362.97;4960628;28;115859;-80
2024/02/01 01:54:25;;;;;;;13.43;9.32;;;;;;;11.44;62.98;102363.81;4941595;28;116145;-80
2024/02/01 01:56:53;;;;;;;12.45;9.02;;;;;;;11.44;63.19;102364.69;4960382;28;124937;-80
2024/02/01 01:59:22;;;;;;;14.93;9.32;;;;;;;11.46;62.95;102357.56;4958665;28;125528;-80
2024/02/01 02:01:51;;;;;;;14.32;9.07;;;;;;;11.47;63.15;102354.00;4973961;28;113471;-80
2024/02/01 02:04:19;;;;;;;12.90;8.52;;;;;;;11.48;63.20;102355.75;4955536;28;115598;-80
2024/02/01 02:06:48;;;;;;;15.25;8.75;;;;;;;11.51;63.23;102365.41;4950535;28;125000;-80
2024/02/01 02:09:15;;;;;;;14.43;8.85;;;;;;;11.52;63.47;102360.97;4966604;28;123747;-80
2024/02/01 02:11:45;;;;;;;14.13;9.15;;;;;;;11.54;63.27;102369.78;4947383;28;113687;-80
2024/02/01 02:14:16;;;;;;;14.93;8.88;;;;;;;11.53;63.35;102368.00;4953633;28;113843;-80
2024/02/01 02:16:43;;;;;;;15.48;9.93;;;;;;;11.54;63.41;102365.31;4964026;28;122852;-80
2024/02/01 02:19:10;;;;;;;14.05;9.13;;;;;;;11.56;63.68;102367.94;4951867;28;123776;-80
2024/02/01 02:21:45;;;;;;;15.13;9.50;;;;;;;11.57;63.52;102369.72;4959782;28;113708;-80
2024/02/01 02:24:14;;;;;;;13.70;9.30;;;;;;;11.59;63.65;102373.19;4962015;28;113084;-80
2024/02/01 02:26:42;;;;;;;14.57;9.70;;;;;;;11.60;63.59;102369.59;4962339;28;123003;-80
2024/02/01 02:29:10;;;;;;;13.90;9.65;;;;;;;11.63;63.81;102369.53;4939964;28;124736;-80
2024/02/01 02:31:37;;;;;;;13.85;9.68;;;;;;;11.63;63.86;102374.84;4979820;28;116317;-80
2024/02/01 02:34:04;;;;;;;14.70;10.05;;;;;;;11.64;63.74;102376.59;4967285;28;113933;-80
2024/02/01 02:36:31;;;;;;;14.75;9.93;;;;;;;11.65;63.75;102378.34;4965836;28;124041;-80
2024/02/01 02:39:00;;;;;;;17.30;10.60;;;;;;;11.67;64.00;102376.50;4966437;28;125913;-79
2024/02/01 02:41:28;;;;;;;13.70;9.52;;;;;;;11.68;63.92;102380.94;4947421;28;115105;-80
2024/02/01 02:44:00;;;;;;;17.52;10.73;;;;;;;11.69;63.99;102386.16;4971131;28;115286;-79
2024/02/01 02:46:30;;;;;;;16.15;10.18;;;;;;;11.72;63.97;102395.88;4955013;28;125582;-79
2024/02/01 02:48:57;;;;;;;15.02;9.98;;;;;;;11.74;64.10;102396.69;4965718;28;124338;-80
2024/02/01 02:51:25;;;;;;;13.38;9.93;;;;;;;11.76;64.06;102402.84;4950097;28;114134;-80
2024/02/01 02:53:52;;;;;;;14.65;10.13;;;;;;;11.78;64.23;102401.00;4966522;28;114249;-80
2024/02/01 02:56:21;;;;;;;15.10;10.32;;;;;;;11.78;64.24;102393.03;4968851;28;125896;-80
2024/02/01 02:58:49;;;;;;;15.15;9.95;;;;;;;11.81;64.20;102398.28;4969005;28;123908;-80
2024/02/01 03:01:16;;;;;;;13.50;10.15;;;;;;;11.82;64.35;102397.34;4962853;28;115702;-80
2024/02/01 03:03:44;;;;;;;16.50;10.50;;;;;;;11.84;64.37;102400.84;4960356;28;113398;-80
2024/02/01 03:06:12;;;;;;;13.63;9.65;;;;;;;11.86;64.25;102409.63;4969979;28;123130;-80
2024/02/01 03:08:42;;;;;;;14.68;10.07;;;;;;;11.88;64.44;102402.53;4969535;28;124897;-80
2024/02/01 03:11:11;;;;;;;14.50;9.65;;;;;;;11.91;64.50;102406.06;4957658;28;113692;-80
2024/02/01 03:13:45;;;;;;;15.52;9.85;;;;;;;11.93;64.51;102405.09;4981827;28;113138;-80
2024/02/01 03:16:17;;;;;;;15.02;9.77;;;;;;;11.96;64.58;102409.44;4961583;28;122926;-80
2024/02/01 03:18:46;;;;;;;13.73;10.23;;;;;;;11.99;64.57;102409.38;4964460;28;123840;-80
2024/02/01 03:21:18;;;;;;;13.98;10.40;;;;;;;12.01;64.73;102402.25;4964205;28;113928;-80
2024/02/01 03:23:47;;;;;;;14.10;9.88;;;;;;;12.02;64.75;102409.31;4960281;28;115429;-80
2024/02/01 03:26:14;;;;;;;14.95;9.38;;;;;;;12.04;64.90;102418.09;4965722;28;123784;-80
2024/02/01 03:28:44;;;;;;;14.45;10.35;;;;;;;12.06;64.80;102421.59;4971373;28;123838;-80
2024/02/01 03:31:11;;;;;;;16.88;10.20;;;;;;;12.08;64.93;102417.09;4970210;28;114845;-80
2024/02/01 03:33:44;;;;;;;16.45;10.05;;;;;;;12.12;64.95;102421.41;4969756;28;116517;-80
2024/02/01 03:36:11;;;;;;;14.93;9.35;;;;;;;12.14;64.94;102419.59;4955900;28;123144;-80
2024/02/01 03:38:42;;;;;;;13.98;9.30;;;;;;;12.18;64.85;102425.69;4975225;28;123376;-80
2024/02/01 03:41:13;;;;;;;16.20;9.95;;;;;;;12.20;65.02;102427.38;4960478;28;114277;-80
2024/02/01 03:43:40;;;;;;;16.50;9.63;;;;;;;12.23;64.88;102429.97;4966367;28;114062;-80
2024/02/01 03:46:07;;;;;;;16.38;9.60;;;;;;;12.26;65.17;102429.91;4967331;28;124631;-80
2024/02/01 03:48:35;;;;;;;16.52;9.38;;;;;;;12.27;64.81;102431.63;4942312;28;124710;-80
2024/02/01 03:51:03;;;;;;;15.65;8.60;;;;;;;12.30;64.96;102429.81;4989600;28;114181;-80
2024/02/01 03:53:30;;;;;;;17.65;9.10;;;;;;;12.31;64.92;102436.88;4973416;28;115565;-80
2024/02/01 03:55:57;;;;;;;16.48;8.70;;;;;;;12.35;65.05;102443.84;4968598;28;125868;-80
2024/02/01 03:58:26;;;;;;;16.00;8.45;;;;;;;12.38;65.14;102449.09;4954818;28;124194;-80
2024/02/01 04:00:56;;;;;;;16.75;7.72;;;;;;;12.39;65.05;102450.81;4951571;28;115078;-80
2024/02/01 04:03:24;;;;;;;15.30;7.20;;;;;;;12.40;65.12;102463.22;4971352;28;113786;-80
2024/02/01 04:05:53;;;;;;;16.50;7.50;;;;;;;12.39;64.98;102454.34;4966713;28;123721;-80
2024/02/01 04:08:21;;;;;;;14.63;7.20;;;;;;;12.43;65.10;102468.41;4964341;28;125659;-80
2024/02/01 04:10:48;;;;;;;17.10;7.55;;;;;;;12.43;65.17;102473.72;4968554;28;115135;-80
2024/02/01 04:13:16;;;;;;;16.98;6.78;;;;;;;12.43;65.09;102479.06;4962715;28;115593;-80
2024/02/01 04:15:44;;;;;;;19.58;6.78;;;;;;;12.44;64.80;102486.13;4956662;28;123019;-80
2024/02/01 04:18:11;;;;;;;15.90;6.25;;;;;;;12.44;65.12;102502.06;4967306;28;123528;-80
2024/02/01 04:20:40;;;;;;;14.63;5.80;;;;;;;12.43;64.96;102500.31;4968214;28;115078;-80
2024/02/01 04:23:07;;;;;;;19.77;6.60;;;;;;;12.42;64.92;102503.91;4953389;28;116346;-80
2024/02/01 04:25:36;;;;;;;15.27;5.70;;;;;;;12.42;65.06;102514.53;4952490;28;123692;-80
2024/02/01 04:28:08;;;;;;;13.93;5.43;;;;;;;12.40;64.97;102521.66;4954174;28;124142;-80
2024/02/01 04:30:37;;;;;;;20.75;5.43;;;;;;;12.39;64.61;102535.84;4969597;28;115476;-80
2024/02/01 04:33:04;;;;;;;15.25;4.90;;;;;;;12.38;64.70;102539.44;4971394;28;113302;-80
2024/02/01 04:35:32;;;;;;;16.27;5.65;;;;;;;12.37;64.77;102553.63;4956056;28;122284;-80
2024/02/01 04:37:59;;;;;;;14.07;5.18;;;;;;;12.35;64.79;102547.47;4978285;28;122067;-80
2024/02/01 04:40:27;;;;;;;19.00;5.00;;;;;;;12.34;64.64;102559.00;4994455;28;113622;-80
2024/02/01 04:42:56;;;;;;;12.32;3.80;;;;;;;12.31;64.45;102564.41;4975115;28;112087;-79
2024/02/01 04:45:23;;;;;;;14.77;4.50;;;;;;;12.27;64.56;102569.78;4979251;28;123394;-80
2024/02/01 04:47:51;;;;;;;18.15;4.63;;;;;;;12.25;64.37;102566.28;4984233;28;122956;-80
2024/02/01 04:50:18;;;;;;;14.10;3.90;;;;;;;12.22;64.31;102582.31;4979386;28;113678;-80
2024/02/01 04:52:45;;;;;;;17.42;4.10;;;;;;;12.20;64.25;102584.13;4996127;28;114526;-80
2024/02/01 04:55:13;;;;;;;12.93;3.90;;;;;;;12.15;63.96;102583.38;4975301;28;123052;-80
2024/02/01 04:57:40;;;;;;;15.27;3.70;;;;;;;12.09;63.92;102591.47;4986463;28;121898;-79
2024/02/01 05:00:17;;;;;;;13.70;3.60;;;;;;;12.01;63.75;102588.13;4966315;28;115505;-80
2024/02/01 05:02:47;;;;;;;19.40;3.58;;;;;;;11.95;63.60;102604.22;4969478;28;114357;-79
2024/02/01 05:05:16;;;;;;;15.10;3.17;;;;;;;11.86;63.45;102600.78;4950853;28;123763;-80
2024/02/01 05:07:44;;;;;;;11.68;3.05;;;;;;;11.79;63.32;102609.81;4968103;28;124481;-80
2024/02/01 05:10:13;;;;;;;10.43;2.90;;;;;;;11.68;63.21;102611.84;4979118;28;115011;-80
2024/02/01 05:12:41;;;;;;;13.82;2.97;;;;;;;11.60;63.25;102617.31;4969913;28;115917;-80
2024/02/01 05:15:11;;;;;;;13.55;2.70;;;;;;;11.52;62.91;102621.88;4968080;28;123472;-80
2024/02/01 05:17:39;;;;;;;15.73;2.50;;;;;;;11.42;62.71;102637.13;4967040;28;123916;-80
2024/02/01 05:20:11;;;;;;;10.90;2.53;;;;;;;11.30;62.48;102637.34;4966077;28;113868;-80
2024/02/01 05:22:40;;;;;;;12.05;2.22;;;;;;;11.18;61.47;102653.50;4962475;28;113981;-80
2024/02/01 05:25:23;;;;;;;16.88;2.63;;;;;;;11.02;61.60;102645.84;4969172;28;123243;-80
2024/02/01 05:27:53;;;;;;;10.82;2.55;;;;;;;10.90;61.69;102659.28;4964601;28;123166;-80
2024/02/01 05:30:22;;;;;;;11.45;1.98;;;;;;;10.77;61.51;102649.78;4974988;28;113735;-80
2024/02/01 05:32:54;;;;;;;13.95;1.90;;;;;;;10.67;61.33;102659.69;4969065;28;114927;-80
2024/02/01 05:35:28;;;;;;;10.38;1.95;;;;;;;10.57;61.06;102666.91;4967697;28;122240;-80
2024/02/01 05:38:00;;;;;;;14.60;2.38;;;;;;;10.50;61.25;102670.53;4956309;28;123661;-80
2024/02/01 05:40:28;;;;;;;11.50;2.00;;;;;;;10.40;61.08;102675.09;4958553;28;113762;-80
2024/02/01 05:42:55;;;;;;;9.50;2.08;;;;;;;10.33;61.24;102676.97;4950127;28;114031;-80
2024/02/01 05:45:22;;;;;;;14.05;1.80;;;;;;;10.25;61.04;102676.16;4972336;28;124382;-80
2024/02/01 05:47:51;;;;;;;11.25;1.83;;;;;;;10.18;61.20;102690.38;4950651;28;126006;-80
2024/02/01 05:50:19;;;;;;;16.13;2.15;;;;;;;10.11;61.45;102694.00;4971280;28;114948;-80
2024/02/01 05:52:46;;;;;;;17.35;2.35;;;;;;;10.03;60.96;102690.59;4960372;28;113229;-80
2024/02/01 05:55:13;;;;;;;11.00;1.88;;;;;;;9.98;61.21;102697.72;4952016;28;125956;-80
2024/02/01 05:57:41;;;;;;;8.05;1.90;;;;;;;9.91;61.12;102687.22;4956386;28;121949;-80
2024/02/01 06:00:12;;;;;;;11.45;1.58;;;;;;;9.86;61.39;102704.91;4954393;28;116870;-81
2024/02/01 06:02:41;;;;;;;9.25;1.80;;;;;;;9.83;61.28;102704.97;4968793;28;115293;-80
2024/02/01 06:05:08;;;;;;;14.88;2.00;;;;;;;9.79;61.25;102711.16;4961048;28;125072;-80
2024/02/01 06:07:35;;;;;;;10.85;1.90;;;;;;;9.79;61.24;102727.03;4946131;28;125123;-80
2024/02/01 06:10:03;;;;;;;12.10;1.73;;;;;;;9.75;61.27;102730.63;4984145;28;114829;-80
2024/02/01 06:12:30;;;;;;;10.70;2.00;;;;;;;9.73;61.18;102735.06;4983511;28;115815;-80
2024/02/01 06:15:05;;;;;;;7.45;1.88;;;;;;;9.68;61.14;102726.28;4967983;28;125279;-80
2024/02/01 06:17:32;;;;;;;13.18;2.00;;;;;;;9.66;61.21;102743.94;4970314;28;124138;-80
2024/02/01 06:20:00;;;;;;;11.15;2.35;;;;;;;9.62;61.09;102747.53;4965637;28;115409;-80
2024/02/01 06:22:27;;;;;;;11.45;1.80;;;;;;;9.58;61.25;102745.81;4962992;28;113744;-80
2024/02/01 06:24:55;;;;;;;9.75;2.10;;;;;;;9.53;61.04;102749.38;4972257;28;124072;-80
2024/02/01 06:27:22;;;;;;;12.27;2.20;;;;;;;9.48;61.22;102745.91;4965450;28;125481;-80
2024/02/01 06:29:49;;;;;;;19.13;2.50;;;;;;;9.45;61.11;102761.78;4949571;28;115043;-80
2024/02/01 06:32:19;;;;;;;17.38;2.33;;;;;;;9.41;61.16;102765.34;4982136;28;112956;-80
2024/02/01 06:34:57;;;;;;;14.07;2.47;;;;;;;9.37;61.16;102774.22;4987834;28;123729;-80
2024/02/01 06:37:28;;;;;;;9.23;2.10;;;;;;;9.33;61.28;102783.06;4978144;28;124877;-80
2024/02/01 06:43:08;;;;;;;15.75;2.20;;;;;;;9.27;61.28;102788.41;4971661;28;114525;-80
2024/02/01 06:46:00;;;;;;;15.48;2.30;;;;;;;9.22;61.28;102784.91;4968672;28;124029;-80
2024/02/01 06:48:41;;;;;;;7.60;1.73;;;;;;;9.15;61.55;102798.19;4962459;28;122650;-80
2024/02/01 06:51:21;;;;;;;8.82;1.33;;;;;;;9.10;61.22;102786.78;4970904;28;116465;-80
2024/02/01 06:54:05;;;;;;;11.77;1.75;;;;;;;9.05;61.20;102793.84;4969588;28;114360;-80
2024/02/01 06:56:51;;;;;;;7.72;1.60;;;;;;;9.01;61.03;102796.53;4952974;28;122554;-80
2024/02/01 06:59:33;;;;;;;8.73;1.30;;;;;;;8.95;61.46;102792.19;4964017;28;122251;-80
2024/02/01 07:04:55;;;;;;;2.85;1.15;;;;;;;8.84;61.24;102801.94;4965716;28;113584;-80
2024/02/01 07:07:26;;;;;;;11.63;1.33;;;;;;;8.80;61.18;102808.09;4958645;28;124150;-80
2024/02/01 07:09:58;;;;;;;9.40;1.75;;;;;;;8.75;61.36;102811.66;4969638;28;125275;-80
2024/02/01 07:12:42;;;;;;;11.73;1.63;;;;;;;8.71;61.52;102809.91;4969067;28;114089;-80
2024/02/01 07:18:14;;;;;;;10.10;1.65;;;;;;;8.65;61.42;102809.09;4971552;28;123444;-80
2024/02/01 07:20:51;;;;;;;11.38;1.65;;;;;;;8.61;61.35;102829.34;4977356;28;124096;-80
2024/02/01 07:26:02;;;;;;;12.55;1.67;;;;;;;8.55;61.72;102839.94;4970710;28;113339;-80
2024/02/01 07:59:02;;;;;;;14.60;1.88;;;;;;;8.23;61.71;102906.00;4960019;28;113241;-82
2024/02/01 08:01:38;;;;;;;12.80;1.80;;;;;;;8.22;61.53;102905.13;4964565;28;124736;-81
2024/02/01 08:04:17;;;;;;;16.08;2.33;;;;;;;8.22;61.73;102910.41;4974512;28;123242;-81
2024/02/01 08:09:31;;;;;;;16.60;2.53;;;;;;;8.25;61.71;102910.44;4960865;28;113309;-81
2024/02/01 08:11:58;;;;;;;13.98;2.55;;;;;;;8.25;61.49;102915.72;4949228;28;124315;-82
2024/02/01 08:14:27;;;;;;;16.00;2.00;;;;;;;8.27;61.60;102923.59;4979275;28;123786;-81
2024/02/01 08:16:54;;;;;;;8.50;1.73;;;;;;;8.26;61.49;102928.00;4964792;28;114513;-80
2024/02/01 08:19:22;;;;;;;16.70;2.30;;;;;;;8.28;61.84;102926.25;4962976;28;114339;-81
2024/02/01 08:22:08;;;;;;;11.93;2.15;;;;;;;8.30;61.54;102929.75;4969006;28;124155;-83
2024/02/01 08:24:36;;;;;;;14.98;2.55;;;;;;;8.32;61.74;102935.91;4964523;28;124620;-81
2024/02/01 08:27:04;;;;;;;14.85;2.30;;;;;;;8.34;61.87;102942.09;4960089;28;113933;-81
2024/02/01 08:29:36;;;;;;;18.80;2.20;;;;;;;8.35;61.92;102942.97;4956352;28;115414;-81
2024/02/01 08:32:04;;;;;;;23.33;2.13;;;;;;;8.39;61.61;102944.72;4964821;28;123433;-81
2024/02/01 08:34:32;;;;;;;14.48;2.15;;;;;;;8.41;61.66;102947.34;4952950;28;123415;-81
2024/02/01 08:36:59;;;;;;;13.20;1.95;;;;;;;8.45;61.68;102949.13;4956068;28;116817;-81
2024/02/01 08:39:26;;;;;;;14.38;2.13;;;;;;;8.47;61.80;102947.34;4947792;28;116196;-81
2024/02/01 08:41:54;;;;;;;15.75;2.20;;;;;;;8.50;61.71;102952.66;4976268;28;125246;-82
2024/02/01 08:44:21;;;;;;;13.32;2.30;;;;;;;8.54;61.81;102962.31;4975686;28;124601;-81
2024/02/01 08:46:51;;;;;;;18.90;2.17;;;;;;;8.57;61.65;102967.59;4966754;28;115155;-81
2024/02/01 08:49:18;;;;;;;19.27;2.15;;;;;;;8.60;61.54;102964.94;4961640;28;115975;-81
2024/02/01 08:51:46;;;;;;;12.60;2.13;;;;;;;8.63;61.74;102970.22;4966645;28;124817;-81
2024/02/01 08:54:13;;;;;;;14.65;2.13;;;;;;;8.67;61.63;102979.88;4973540;28;123742;-81
2024/02/01 08:56:40;;;;;;;13.48;2.72;;;;;;;8.71;61.84;102979.00;4978551;28;115231;-81
2024/02/01 08:59:08;;;;;;;11.80;1.90;;;;;;;8.75;61.80;102986.03;4973740;28;114054;-80
2024/02/01 09:01:35;;;;;;;11.63;1.73;;;;;;;8.81;61.82;103000.09;4968460;28;125767;-81
2024/02/01 09:04:13;;;;;;;8.77;1.70;;;;;;;8.83;61.62;102991.28;4968560;28;123444;-81
2024/02/01 09:06:53;;;;;;;14.02;1.95;;;;;;;8.89;61.77;102993.03;4952958;28;113809;-81
2024/02/01 09:09:28;;;;;;;18.48;2.20;;;;;;;8.94;61.91;103010.63;4949181;28;113505;-81
2024/02/01 09:11:56;;;;;;;12.43;1.80;;;;;;;8.99;61.92;103010.63;4966114;28;124834;-81
2024/02/01 09:14:24;;;;;;;11.43;2.05;;;;;;;9.03;62.02;103001.78;4961695;28;124112;-81
2024/02/01 09:16:53;;;;;;;10.98;1.65;;;;;;;9.09;61.71;103012.34;4968923;28;113238;-81
2024/02/01 09:19:21;;;;;;;11.27;1.73;;;;;;;9.16;61.85;103007.91;4962986;28;113106;-81
2024/02/01 09:21:48;;;;;;;12.45;2.03;;;;;;;9.21;61.78;103005.25;4974287;28;124781;-81
2024/02/01 09:24:17;;;;;;;14.35;2.28;;;;;;;9.26;62.11;103008.75;4955217;28;124566;-81
2024/02/01 09:26:45;;;;;;;9.60;2.03;;;;;;;9.32;61.69;103003.41;4948138;28;115658;-81
2024/02/01 09:29:13;;;;;;;11.70;1.95;;;;;;;9.38;61.80;103007.81;4953251;28;115682;-81
2024/02/01 09:31:40;;;;;;;11.93;1.90;;;;;;;9.43;61.74;103014.81;4985514;28;125092;-81
2024/02/01 09:34:14;;;;;;;12.13;1.92;;;;;;;9.50;61.65;103013.91;4990714;28;124431;-80
2024/02/01 09:36:41;;;;;;;16.05;2.20;;;;;;;9.55;61.76;103014.78;4974762;28;114706;-81
2024/02/01 09:39:11;;;;;;;15.13;1.70;;;;;;;9.61;61.50;103026.22;4988295;28;114582;-82
2024/02/01 09:41:39;;;;;;;13.52;2.33;;;;;;;9.68;61.50;103022.63;4986306;28;123542;-84
2024/02/01 09:44:09;;;;;;;16.23;2.65;;;;;;;9.73;61.48;103020.84;4976254;28;123591;-82
2024/02/01 09:46:36;;;;;;;15.38;1.73;;;;;;;9.81;61.52;103029.59;4988137;28;114015;-82
2024/02/01 09:49:06;;;;;;;15.02;1.80;;;;;;;9.87;61.42;103029.56;5003143;28;114866;-81
2024/02/01 09:51:46;;;;;;;14.77;1.85;;;;;;;9.92;61.35;103011.00;4990044;28;123769;-82
2024/02/01 09:54:14;;;;;;;16.20;2.15;;;;;;;10.00;61.49;103024.16;5017012;28;123528;-82
2024/02/01 09:56:42;;;;;;;13.43;2.03;;;;;;;10.05;61.20;103032.97;5003586;28;113498;-82
2024/02/01 09:59:14;;;;;;;17.95;1.90;;;;;;;10.11;61.30;103032.91;4986541;28;113361;-81
2024/02/01 10:01:42;;;;;;;14.93;2.05;;;;;;;10.18;61.45;103039.03;5008672;28;124920;-81
2024/02/01 10:04:11;;;;;;;15.15;2.28;;;;;;;10.21;61.29;103045.19;4984845;28;123364;-80
2024/02/01 10:06:38;;;;;;;17.10;2.65;;;;;;;10.25;61.33;103049.56;4967138;28;114312;-81
2024/02/01 10:09:20;;;;;;;11.20;2.05;;;;;;;10.31;61.19;103052.19;4982873;28;115625;-82
2024/02/01 10:11:50;;;;;;;12.25;1.77;;;;;;;10.39;61.23;103043.31;4957493;28;124311;-80
2024/02/01 10:14:17;;;;;;;13.43;2.10;;;;;;;10.46;61.21;103066.22;4968546;28;125681;-81
2024/02/01 10:16:45;;;;;;;15.30;2.45;;;;;;;10.53;60.94;103067.94;4965281;28;114238;-81
2024/02/01 10:19:14;;;;;;;13.32;1.98;;;;;;;10.59;61.06;103078.47;4966924;28;116288;-82
2024/02/01 10:21:44;;;;;;;19.13;1.88;;;;;;;10.63;60.86;103096.09;4968522;28;124029;-81
2024/02/01 10:24:23;;;;;;;15.20;2.22;;;;;;;10.67;60.98;103097.81;4958309;28;121840;-80
2024/02/01 10:26:52;;;;;;;11.70;1.92;;;;;;;10.73;60.82;103096.00;4963969;28;115305;-81
2024/02/01 10:29:20;;;;;;;11.57;1.85;;;;;;;10.77;60.86;103082.69;4964351;28;114369;-81
2024/02/01 10:31:55;;;;;;;18.60;2.00;;;;;;;10.83;60.96;103077.34;4960082;28;125054;-80
2024/02/01 10:34:25;;;;;;;14.77;2.30;;;;;;;10.87;60.92;103083.50;4946405;28;123659;-81
2024/02/01 10:37:00;;;;;;;14.27;2.42;;;;;;;10.90;60.73;103083.44;4951892;28;115376;-81
2024/02/01 10:39:38;;;;;;;14.07;2.05;;;;;;;10.94;60.70;103079.88;4949193;28;113828;-81
2024/02/01 10:42:09;;;;;;;15.10;2.22;;;;;;;11.00;60.65;103079.81;4943069;28;124831;-81
2024/02/01 10:44:41;;;;;;;15.48;2.17;;;;;;;11.08;60.67;103083.25;4949974;28;126572;-81
2024/02/01 10:47:13;;;;;;;16.17;2.63;;;;;;;11.13;60.52;103082.31;4970777;28;115361;-81
2024/02/01 10:49:52;;;;;;;16.30;2.35;;;;;;;11.17;60.54;103073.44;4967957;28;113295;-81
2024/02/01 10:52:23;;;;;;;12.30;1.95;;;;;;;11.21;60.58;103077.84;4948482;28;123376;-81
2024/02/01 10:54:51;;;;;;;10.25;2.00;;;;;;;11.26;60.48;103082.19;4966971;28;123858;-81
2024/02/01 10:57:19;;;;;;;12.98;2.05;;;;;;;11.32;60.36;103075.94;4983944;28;113163;-81
2024/02/01 10:59:49;;;;;;;12.00;2.20;;;;;;;11.39;60.48;103072.28;4967324;28;113811;-82
2024/02/01 11:02:19;;;;;;;15.63;2.25;;;;;;;11.43;60.44;103068.72;4952324;28;122976;-81
2024/02/01 11:04:48;;;;;;;18.60;2.50;;;;;;;11.52;60.32;103072.13;4971155;28;122225;-81
2024/02/01 11:07:20;;;;;;;16.17;2.33;;;;;;;11.54;60.06;103059.72;4954412;28;114453;-82
2024/02/01 11:09:49;;;;;;;14.80;2.15;;;;;;;11.57;60.03;103065.00;4973697;28;114264;-82
2024/02/01 11:12:24;;;;;;;16.00;2.63;;;;;;;11.58;59.65;103072.03;4963313;28;126491;-81
2024/02/01 11:14:53;;;;;;;17.83;2.45;;;;;;;11.61;59.81;103072.00;4970170;28;122837;-81
2024/02/01 11:17:25;;;;;;;12.50;2.13;;;;;;;11.62;59.67;103073.75;4955589;28;113363;-81
2024/02/01 11:19:55;;;;;;;11.95;1.92;;;;;;;11.63;59.59;103079.03;4959269;28;113657;-81
2024/02/01 11:22:22;;;;;;;10.38;2.47;;;;;;;11.64;59.62;103074.59;4971090;28;124044;-81
2024/02/01 11:25:00;;;;;;;15.15;2.20;;;;;;;11.66;59.64;103075.50;4972657;28;123646;-81
2024/02/01 11:27:27;;;;;;;14.63;2.22;;;;;;;11.68;59.36;103073.69;4970566;28;113906;-81
2024/02/01 11:30:19;;;;;;;16.30;2.20;;;;;;;11.68;59.46;103073.69;4966420;28;114330;-81
2024/02/01 11:32:46;;;;;;;15.07;2.08;;;;;;;11.71;59.38;103078.94;4960395;28;124629;-80
2024/02/01 11:35:15;;;;;;;13.05;2.47;;;;;;;11.74;59.33;103073.59;4973724;28;125899;-81
2024/02/01 11:37:42;;;;;;;21.30;2.50;;;;;;;11.75;59.22;103085.94;4972645;28;114462;-81
2024/02/01 11:40:18;;;;;;;11.95;2.03;;;;;;;11.79;59.29;103087.69;4966437;28;114173;-80
2024/02/01 11:42:45;;;;;;;15.05;2.25;;;;;;;11.84;59.36;103085.81;4970033;28;123981;-81
2024/02/01 11:45:15;;;;;;;15.20;2.20;;;;;;;11.91;59.31;103094.63;4968240;28;124469;-80
2024/02/01 11:47:43;;;;;;;17.27;2.50;;;;;;;11.98;59.39;103100.72;4964911;28;113848;-81
2024/02/01 11:50:11;;;;;;;17.77;2.53;;;;;;;12.04;59.24;103098.00;4952278;28;113428;-81
2024/02/01 11:52:56;;;;;;;13.88;2.50;;;;;;;12.11;59.13;103089.03;4951631;28;124568;-81
2024/02/01 11:55:27;;;;;;;15.88;2.58;;;;;;;12.15;59.25;103082.78;4950501;28;123503;-81
2024/02/01 11:57:57;;;;;;;11.18;2.53;;;;;;;12.18;58.86;103080.03;4968881;28;115257;-81
2024/02/01 12:00:25;;;;;;;10.90;1.77;;;;;;;12.16;58.53;103084.50;4969039;28;113694;-83
2024/02/01 12:03:12;;;;;;;15.52;2.25;;;;;;;12.13;58.65;103081.91;4952260;28;123668;-81
2024/02/01 12:05:43;;;;;;;12.43;2.03;;;;;;;12.12;58.70;103074.84;4952473;28;123133;-81
2024/02/01 12:08:11;;;;;;;11.13;2.28;;;;;;;12.14;58.85;103077.47;4969766;28;112418;-81